sensor_id;sensor_type;location;lat;lon;timestamp;P1;durP1;ratioP1;P2;durP2;ratioP2
19006;SDS011;9636;47.382;8.480;2023-02-28T00:00:57;1.60;;;1.50;;
19006;SDS011;9636;47.382;8.480;2023-02-28T00:03:24;2.30;;;2.10;;
19006;SDS011;9636;47.382;8.480;2023-02-28T00:05:51;1.70;;;1.60;;
19006;SDS011;9636;47.382;8.480;2023-02-28T00:08:19;1.70;;;1.60;;
19006;SDS011;9636;47.382;8.480;2023-02-28T00:10:46;2.60;;;1.90;;
19006;SDS011;9636;47.382;8.480;2023-02-28T00:13:13;2.10;;;1.80;;
19006;SDS011;9636;47.382;8.480;2023-02-28T00:15:41;1.90;;;1.70;;
19006;SDS011;9636;47.382;8.480;2023-02-28T00:18:10;1.90;;;1.80;;
19006;SDS011;9636;47.382;8.480;2023-02-28T00:20:38;2.43;;;1.90;;
19006;SDS011;9636;47.382;8.480;2023-02-28T00:23:05;1.97;;;1.77;;
19006;SDS011;9636;47.382;8.480;2023-02-28T00:25:32;1.80;;;1.70;;
19006;SDS011;9636;47.382;8.480;2023-02-28T00:27:59;1.87;;;1.60;;
19006;SDS011;9636;47.382;8.480;2023-02-28T00:30:26;1.97;;;1.70;;
19006;SDS011;9636;47.382;8.480;2023-02-28T00:32:53;2.07;;;1.87;;
19006;SDS011;9636;47.382;8.480;2023-02-28T00:35:22;2.23;;;2.03;;
19006;SDS011;9636;47.382;8.480;2023-02-28T00:37:49;2.50;;;1.90;;
19006;SDS011;9636;47.382;8.480;2023-02-28T00:40:16;2.03;;;1.87;;
19006;SDS011;9636;47.382;8.480;2023-02-28T00:42:44;1.80;;;1.70;;
19006;SDS011;9636;47.382;8.480;2023-02-28T00:45:11;2.40;;;1.87;;
19006;SDS011;9636;47.382;8.480;2023-02-28T00:47:38;1.97;;;1.80;;
19006;SDS011;9636;47.382;8.480;2023-02-28T00:50:05;2.13;;;1.87;;
19006;SDS011;9636;47.382;8.480;2023-02-28T00:52:34;2.47;;;1.80;;
19006;SDS011;9636;47.382;8.480;2023-02-28T00:55:02;2.20;;;2.00;;
19006;SDS011;9636;47.382;8.480;2023-02-28T00:57:29;1.83;;;1.73;;
19006;SDS011;9636;47.382;8.480;2023-02-28T00:59:56;1.77;;;1.67;;
19006;SDS011;9636;47.382;8.480;2023-02-28T01:02:23;2.13;;;1.93;;
19006;SDS011;9636;47.382;8.480;2023-02-28T01:04:50;1.70;;;1.60;;
19006;SDS011;9636;47.382;8.480;2023-02-28T01:07:17;1.83;;;1.73;;
19006;SDS011;9636;47.382;8.480;2023-02-28T01:09:46;2.50;;;2.17;;
19006;SDS011;9636;47.382;8.480;2023-02-28T01:12:13;2.03;;;1.83;;
19006;SDS011;9636;47.382;8.480;2023-02-28T01:14:40;1.87;;;1.70;;
19006;SDS011;9636;47.382;8.480;2023-02-28T01:17:07;2.17;;;1.90;;
19006;SDS011;9636;47.382;8.480;2023-02-28T01:19:34;2.47;;;2.23;;
19006;SDS011;9636;47.382;8.480;2023-02-28T01:22:02;1.97;;;1.87;;
19006;SDS011;9636;47.382;8.480;2023-02-28T01:24:29;2.03;;;1.83;;
19006;SDS011;9636;47.382;8.480;2023-02-28T01:26:57;2.23;;;2.03;;
19006;SDS011;9636;47.382;8.480;2023-02-28T01:29:25;2.27;;;2.07;;
19006;SDS011;9636;47.382;8.480;2023-02-28T01:31:52;2.23;;;2.03;;
19006;SDS011;9636;47.382;8.480;2023-02-28T01:34:19;1.80;;;1.70;;
19006;SDS011;9636;47.382;8.480;2023-02-28T01:36:46;2.17;;;1.97;;
19006;SDS011;9636;47.382;8.480;2023-02-28T01:39:13;2.20;;;2.00;;
19006;SDS011;9636;47.382;8.480;2023-02-28T01:41:40;2.30;;;2.10;;
19006;SDS011;9636;47.382;8.480;2023-02-28T01:46:51;3.03;;;2.10;;
19006;SDS011;9636;47.382;8.480;2023-02-28T01:49:18;2.30;;;2.07;;
19006;SDS011;9636;47.382;8.480;2023-02-28T01:51:46;2.37;;;2.17;;
19006;SDS011;9636;47.382;8.480;2023-02-28T01:54:16;2.53;;;1.87;;
19006;SDS011;9636;47.382;8.480;2023-02-28T01:56:45;2.10;;;1.90;;
19006;SDS011;9636;47.382;8.480;2023-02-28T01:59:14;2.33;;;2.13;;
19006;SDS011;9636;47.382;8.480;2023-02-28T02:01:47;2.67;;;2.20;;
19006;SDS011;9636;47.382;8.480;2023-02-28T02:04:15;2.20;;;2.00;;
19006;SDS011;9636;47.382;8.480;2023-02-28T02:06:44;2.20;;;1.97;;
19006;SDS011;9636;47.382;8.480;2023-02-28T02:09:12;2.00;;;1.90;;
19006;SDS011;9636;47.382;8.480;2023-02-28T02:11:39;2.37;;;1.80;;
19006;SDS011;9636;47.382;8.480;2023-02-28T02:16:56;2.20;;;2.00;;
19006;SDS011;9636;47.382;8.480;2023-02-28T02:19:33;2.40;;;2.20;;
19006;SDS011;9636;47.382;8.480;2023-02-28T02:22:18;2.40;;;2.10;;
19006;SDS011;9636;47.382;8.480;2023-02-28T02:27:43;2.30;;;2.10;;
19006;SDS011;9636;47.382;8.480;2023-02-28T02:30:19;2.10;;;1.90;;
19006;SDS011;9636;47.382;8.480;2023-02-28T02:32:59;2.67;;;2.30;;
19006;SDS011;9636;47.382;8.480;2023-02-28T02:35:31;3.30;;;1.90;;
19006;SDS011;9636;47.382;8.480;2023-02-28T02:38:03;2.40;;;2.20;;
19006;SDS011;9636;47.382;8.480;2023-02-28T02:40:35;2.57;;;2.20;;
19006;SDS011;9636;47.382;8.480;2023-02-28T02:43:03;2.50;;;2.03;;
19006;SDS011;9636;47.382;8.480;2023-02-28T02:45:34;2.73;;;2.47;;
19006;SDS011;9636;47.382;8.480;2023-02-28T02:48:04;2.10;;;1.90;;
19006;SDS011;9636;47.382;8.480;2023-02-28T02:50:34;2.10;;;1.90;;
19006;SDS011;9636;47.382;8.480;2023-02-28T02:53:03;2.23;;;2.03;;
19006;SDS011;9636;47.382;8.480;2023-02-28T02:55:31;2.43;;;2.23;;
19006;SDS011;9636;47.382;8.480;2023-02-28T02:58:01;2.20;;;2.00;;
19006;SDS011;9636;47.382;8.480;2023-02-28T03:00:30;2.83;;;2.20;;
19006;SDS011;9636;47.382;8.480;2023-02-28T03:02:59;2.67;;;2.27;;
19006;SDS011;9636;47.382;8.480;2023-02-28T03:05:28;2.30;;;2.10;;
19006;SDS011;9636;47.382;8.480;2023-02-28T03:07:58;2.20;;;2.00;;
19006;SDS011;9636;47.382;8.480;2023-02-28T03:10:28;2.53;;;2.23;;
19006;SDS011;9636;47.382;8.480;2023-02-28T03:12:59;2.73;;;2.00;;
19006;SDS011;9636;47.382;8.480;2023-02-28T03:15:31;2.57;;;2.23;;
19006;SDS011;9636;47.382;8.480;2023-02-28T03:18:02;2.50;;;2.30;;
19006;SDS011;9636;47.382;8.480;2023-02-28T03:20:34;2.43;;;2.23;;
19006;SDS011;9636;47.382;8.480;2023-02-28T03:23:06;2.33;;;2.10;;
19006;SDS011;9636;47.382;8.480;2023-02-28T03:25:37;2.63;;;2.20;;
19006;SDS011;9636;47.382;8.480;2023-02-28T03:28:08;2.40;;;2.20;;
19006;SDS011;9636;47.382;8.480;2023-02-28T03:30:39;2.80;;;2.27;;
19006;SDS011;9636;47.382;8.480;2023-02-28T03:33:09;2.30;;;2.10;;
19006;SDS011;9636;47.382;8.480;2023-02-28T03:35:38;2.57;;;2.37;;
19006;SDS011;9636;47.382;8.480;2023-02-28T03:38:09;2.67;;;2.20;;
19006;SDS011;9636;47.382;8.480;2023-02-28T03:40:39;2.67;;;2.27;;
19006;SDS011;9636;47.382;8.480;2023-02-28T03:43:09;2.40;;;2.20;;
19006;SDS011;9636;47.382;8.480;2023-02-28T03:45:38;2.33;;;2.13;;
19006;SDS011;9636;47.382;8.480;2023-02-28T03:48:08;3.73;;;2.50;;
19006;SDS011;9636;47.382;8.480;2023-02-28T03:50:39;2.73;;;2.50;;
19006;SDS011;9636;47.382;8.480;2023-02-28T03:53:10;2.50;;;2.30;;
19006;SDS011;9636;47.382;8.480;2023-02-28T03:55:39;2.23;;;2.03;;
19006;SDS011;9636;47.382;8.480;2023-02-28T03:58:10;2.13;;;1.90;;
19006;SDS011;9636;47.382;8.480;2023-02-28T04:00:39;2.37;;;2.17;;
19006;SDS011;9636;47.382;8.480;2023-02-28T04:03:07;2.73;;;2.30;;
19006;SDS011;9636;47.382;8.480;2023-02-28T04:05:34;2.77;;;2.27;;
19006;SDS011;9636;47.382;8.480;2023-02-28T04:08:12;2.63;;;2.33;;
19006;SDS011;9636;47.382;8.480;2023-02-28T04:10:39;2.50;;;2.30;;
19006;SDS011;9636;47.382;8.480;2023-02-28T04:13:08;2.33;;;2.13;;
19006;SDS011;9636;47.382;8.480;2023-02-28T04:15:35;2.30;;;2.10;;
19006;SDS011;9636;47.382;8.480;2023-02-28T04:18:02;2.40;;;2.20;;
19006;SDS011;9636;47.382;8.480;2023-02-28T04:20:29;2.30;;;2.10;;
19006;SDS011;9636;47.382;8.480;2023-02-28T04:22:56;2.63;;;2.17;;
19006;SDS011;9636;47.382;8.480;2023-02-28T04:25:25;2.50;;;2.30;;
19006;SDS011;9636;47.382;8.480;2023-02-28T04:27:52;2.80;;;2.50;;
19006;SDS011;9636;47.382;8.480;2023-02-28T04:30:19;2.30;;;2.10;;
19006;SDS011;9636;47.382;8.480;2023-02-28T04:32:46;2.73;;;2.10;;
19006;SDS011;9636;47.382;8.480;2023-02-28T04:35:13;3.70;;;2.50;;
19006;SDS011;9636;47.382;8.480;2023-02-28T04:37:41;2.50;;;2.30;;
19006;SDS011;9636;47.382;8.480;2023-02-28T04:40:08;3.40;;;2.50;;
19006;SDS011;9636;47.382;8.480;2023-02-28T04:42:37;2.53;;;1.90;;
19006;SDS011;9636;47.382;8.480;2023-02-28T04:45:04;2.17;;;2.00;;
19006;SDS011;9636;47.382;8.480;2023-02-28T04:47:31;2.37;;;2.17;;
19006;SDS011;9636;47.382;8.480;2023-02-28T04:49:58;2.47;;;2.23;;
19006;SDS011;9636;47.382;8.480;2023-02-28T04:52:27;3.13;;;2.10;;
19006;SDS011;9636;47.382;8.480;2023-02-28T04:54:54;2.43;;;2.20;;
19006;SDS011;9636;47.382;8.480;2023-02-28T04:57:21;2.43;;;2.17;;
19006;SDS011;9636;47.382;8.480;2023-02-28T04:59:50;2.50;;;2.30;;
19006;SDS011;9636;47.382;8.480;2023-02-28T05:02:17;2.80;;;2.53;;
19006;SDS011;9636;47.382;8.480;2023-02-28T05:04:46;2.60;;;2.40;;
19006;SDS011;9636;47.382;8.480;2023-02-28T05:07:13;2.50;;;2.30;;
19006;SDS011;9636;47.382;8.480;2023-02-28T05:09:40;2.20;;;2.00;;
19006;SDS011;9636;47.382;8.480;2023-02-28T05:12:08;2.30;;;2.10;;
19006;SDS011;9636;47.382;8.480;2023-02-28T05:14:35;2.67;;;2.27;;
19006;SDS011;9636;47.382;8.480;2023-02-28T05:17:04;2.67;;;2.47;;
19006;SDS011;9636;47.382;8.480;2023-02-28T05:19:31;2.33;;;2.20;;
19006;SDS011;9636;47.382;8.480;2023-02-28T05:21:58;2.93;;;2.50;;
19006;SDS011;9636;47.382;8.480;2023-02-28T05:24:25;2.53;;;2.33;;
19006;SDS011;9636;47.382;8.480;2023-02-28T05:26:52;2.60;;;2.40;;
19006;SDS011;9636;47.382;8.480;2023-02-28T05:29:20;2.57;;;2.37;;
19006;SDS011;9636;47.382;8.480;2023-02-28T05:31:47;2.70;;;2.03;;
19006;SDS011;9636;47.382;8.480;2023-02-28T05:34:16;2.47;;;2.27;;
19006;SDS011;9636;47.382;8.480;2023-02-28T05:36:43;2.73;;;2.53;;
19006;SDS011;9636;47.382;8.480;2023-02-28T05:39:10;2.40;;;2.20;;
19006;SDS011;9636;47.382;8.480;2023-02-28T05:41:41;2.80;;;2.40;;
19006;SDS011;9636;47.382;8.480;2023-02-28T05:44:08;2.30;;;2.10;;
19006;SDS011;9636;47.382;8.480;2023-02-28T05:46:35;2.30;;;2.10;;
19006;SDS011;9636;47.382;8.480;2023-02-28T05:49:03;2.33;;;2.13;;
19006;SDS011;9636;47.382;8.480;2023-02-28T05:51:31;2.40;;;2.20;;
19006;SDS011;9636;47.382;8.480;2023-02-28T05:54:01;2.20;;;2.10;;
19006;SDS011;9636;47.382;8.480;2023-02-28T05:56:28;2.40;;;2.20;;
19006;SDS011;9636;47.382;8.480;2023-02-28T05:58:55;4.47;;;1.90;;
19006;SDS011;9636;47.382;8.480;2023-02-28T06:01:24;2.80;;;2.50;;
19006;SDS011;9636;47.382;8.480;2023-02-28T06:03:51;2.50;;;2.30;;
19006;SDS011;9636;47.382;8.480;2023-02-28T06:06:18;2.77;;;2.43;;
19006;SDS011;9636;47.382;8.480;2023-02-28T06:08:47;2.90;;;2.40;;
19006;SDS011;9636;47.382;8.480;2023-02-28T06:11:14;2.10;;;1.90;;
19006;SDS011;9636;47.382;8.480;2023-02-28T06:13:41;2.47;;;2.27;;
19006;SDS011;9636;47.382;8.480;2023-02-28T06:16:08;2.30;;;2.10;;
19006;SDS011;9636;47.382;8.480;2023-02-28T06:18:36;2.47;;;2.07;;
19006;SDS011;9636;47.382;8.480;2023-02-28T06:21:03;2.43;;;2.23;;
19006;SDS011;9636;47.382;8.480;2023-02-28T06:23:30;2.40;;;2.00;;
19006;SDS011;9636;47.382;8.480;2023-02-28T06:25:59;2.33;;;2.00;;
19006;SDS011;9636;47.382;8.480;2023-02-28T06:28:26;2.47;;;2.20;;
19006;SDS011;9636;47.382;8.480;2023-02-28T06:30:53;3.13;;;2.27;;
19006;SDS011;9636;47.382;8.480;2023-02-28T06:33:20;2.13;;;1.93;;
19006;SDS011;9636;47.382;8.480;2023-02-28T06:35:47;2.10;;;1.90;;
19006;SDS011;9636;47.382;8.480;2023-02-28T06:38:16;2.20;;;2.00;;
19006;SDS011;9636;47.382;8.480;2023-02-28T06:40:44;2.50;;;2.30;;
19006;SDS011;9636;47.382;8.480;2023-02-28T06:43:12;1.97;;;1.87;;
19006;SDS011;9636;47.382;8.480;2023-02-28T06:45:41;2.50;;;2.20;;
19006;SDS011;9636;47.382;8.480;2023-02-28T06:48:09;2.07;;;1.80;;
19006;SDS011;9636;47.382;8.480;2023-02-28T06:50:36;2.03;;;1.83;;
19006;SDS011;9636;47.382;8.480;2023-02-28T06:53:03;2.03;;;1.80;;
19006;SDS011;9636;47.382;8.480;2023-02-28T06:55:30;2.17;;;1.80;;
19006;SDS011;9636;47.382;8.480;2023-02-28T06:57:58;1.80;;;1.70;;
19006;SDS011;9636;47.382;8.480;2023-02-28T07:00:26;2.10;;;1.90;;
19006;SDS011;9636;47.382;8.480;2023-02-28T07:02:53;2.20;;;2.00;;
19006;SDS011;9636;47.382;8.480;2023-02-28T07:05:20;2.00;;;1.90;;
19006;SDS011;9636;47.382;8.480;2023-02-28T07:07:48;1.87;;;1.70;;
19006;SDS011;9636;47.382;8.480;2023-02-28T07:10:17;1.77;;;1.67;;
19006;SDS011;9636;47.382;8.480;2023-02-28T07:12:44;2.47;;;1.87;;
19006;SDS011;9636;47.382;8.480;2023-02-28T07:15:11;1.90;;;1.80;;
19006;SDS011;9636;47.382;8.480;2023-02-28T07:17:40;1.57;;;1.47;;
19006;SDS011;9636;47.382;8.480;2023-02-28T07:20:07;1.90;;;1.80;;
19006;SDS011;9636;47.382;8.480;2023-02-28T07:22:35;1.90;;;1.70;;
19006;SDS011;9636;47.382;8.480;2023-02-28T07:25:02;1.80;;;1.70;;
19006;SDS011;9636;47.382;8.480;2023-02-28T07:27:29;1.73;;;1.63;;
19006;SDS011;9636;47.382;8.480;2023-02-28T07:29:56;2.03;;;1.70;;
19006;SDS011;9636;47.382;8.480;2023-02-28T07:32:26;1.87;;;1.77;;
19006;SDS011;9636;47.382;8.480;2023-02-28T07:34:55;1.80;;;1.70;;
19006;SDS011;9636;47.382;8.480;2023-02-28T07:37:22;1.87;;;1.77;;
19006;SDS011;9636;47.382;8.480;2023-02-28T07:39:49;1.50;;;1.40;;
19006;SDS011;9636;47.382;8.480;2023-02-28T07:42:16;2.03;;;1.73;;
19006;SDS011;9636;47.382;8.480;2023-02-28T07:44:43;1.80;;;1.70;;
19006;SDS011;9636;47.382;8.480;2023-02-28T07:47:10;1.80;;;1.63;;
19006;SDS011;9636;47.382;8.480;2023-02-28T07:49:37;2.27;;;1.60;;
19006;SDS011;9636;47.382;8.480;2023-02-28T07:52:06;1.60;;;1.50;;
19006;SDS011;9636;47.382;8.480;2023-02-28T07:54:33;1.70;;;1.60;;
19006;SDS011;9636;47.382;8.480;2023-02-28T07:57:00;1.83;;;1.67;;
19006;SDS011;9636;47.382;8.480;2023-02-28T07:59:28;2.70;;;1.80;;
19006;SDS011;9636;47.382;8.480;2023-02-28T08:01:56;1.50;;;1.40;;
19006;SDS011;9636;47.382;8.480;2023-02-28T08:04:24;1.50;;;1.40;;
19006;SDS011;9636;47.382;8.480;2023-02-28T08:06:51;1.97;;;1.50;;
19006;SDS011;9636;47.382;8.480;2023-02-28T08:09:19;1.93;;;1.70;;
19006;SDS011;9636;47.382;8.480;2023-02-28T08:11:46;1.70;;;1.57;;
19006;SDS011;9636;47.382;8.480;2023-02-28T08:14:13;2.00;;;1.70;;
19006;SDS011;9636;47.382;8.480;2023-02-28T08:16:41;2.00;;;1.77;;
19006;SDS011;9636;47.382;8.480;2023-02-28T08:19:08;1.70;;;1.60;;
19006;SDS011;9636;47.382;8.480;2023-02-28T08:21:35;1.50;;;1.40;;
19006;SDS011;9636;47.382;8.480;2023-02-28T08:24:03;1.80;;;1.70;;
19006;SDS011;9636;47.382;8.480;2023-02-28T08:26:31;1.60;;;1.50;;
19006;SDS011;9636;47.382;8.480;2023-02-28T08:28:58;2.40;;;1.60;;
19006;SDS011;9636;47.382;8.480;2023-02-28T08:31:25;1.90;;;1.70;;
19006;SDS011;9636;47.382;8.480;2023-02-28T08:33:52;1.77;;;1.67;;
19006;SDS011;9636;47.382;8.480;2023-02-28T08:36:22;1.60;;;1.50;;
19006;SDS011;9636;47.382;8.480;2023-02-28T08:38:50;1.50;;;1.40;;
19006;SDS011;9636;47.382;8.480;2023-02-28T08:41:17;1.60;;;1.50;;
19006;SDS011;9636;47.382;8.480;2023-02-28T08:43:46;1.80;;;1.57;;
19006;SDS011;9636;47.382;8.480;2023-02-28T08:46:13;1.80;;;1.70;;
19006;SDS011;9636;47.382;8.480;2023-02-28T08:48:40;1.60;;;1.50;;
19006;SDS011;9636;47.382;8.480;2023-02-28T08:51:08;1.43;;;1.33;;
19006;SDS011;9636;47.382;8.480;2023-02-28T08:53:35;1.50;;;1.40;;
19006;SDS011;9636;47.382;8.480;2023-02-28T08:56:03;1.60;;;1.50;;
19006;SDS011;9636;47.382;8.480;2023-02-28T08:58:31;1.67;;;1.40;;
19006;SDS011;9636;47.382;8.480;2023-02-28T09:01:06;1.87;;;1.60;;
19006;SDS011;9636;47.382;8.480;2023-02-28T09:03:34;1.60;;;1.50;;
19006;SDS011;9636;47.382;8.480;2023-02-28T09:06:01;1.40;;;1.30;;
19006;SDS011;9636;47.382;8.480;2023-02-28T09:08:30;1.60;;;1.50;;
19006;SDS011;9636;47.382;8.480;2023-02-28T09:10:58;1.60;;;1.50;;
19006;SDS011;9636;47.382;8.480;2023-02-28T09:13:25;1.57;;;1.47;;
19006;SDS011;9636;47.382;8.480;2023-02-28T09:15:52;1.80;;;1.70;;
19006;SDS011;9636;47.382;8.480;2023-02-28T09:18:21;1.47;;;1.30;;
19006;SDS011;9636;47.382;8.480;2023-02-28T09:20:48;1.90;;;1.80;;
19006;SDS011;9636;47.382;8.480;2023-02-28T09:23:15;1.50;;;1.40;;
19006;SDS011;9636;47.382;8.480;2023-02-28T09:25:45;1.50;;;1.40;;
19006;SDS011;9636;47.382;8.480;2023-02-28T09:28:13;1.70;;;1.60;;
19006;SDS011;9636;47.382;8.480;2023-02-28T09:30:41;1.40;;;1.30;;
19006;SDS011;9636;47.382;8.480;2023-02-28T09:33:08;1.67;;;1.57;;
19006;SDS011;9636;47.382;8.480;2023-02-28T09:35:37;2.00;;;1.50;;
19006;SDS011;9636;47.382;8.480;2023-02-28T09:38:04;1.60;;;1.50;;
19006;SDS011;9636;47.382;8.480;2023-02-28T09:40:34;1.70;;;1.60;;
19006;SDS011;9636;47.382;8.480;2023-02-28T09:43:02;1.60;;;1.50;;
19006;SDS011;9636;47.382;8.480;2023-02-28T09:45:30;1.57;;;1.47;;
19006;SDS011;9636;47.382;8.480;2023-02-28T09:47:58;1.73;;;1.63;;
19006;SDS011;9636;47.382;8.480;2023-02-28T09:50:30;1.60;;;1.50;;
19006;SDS011;9636;47.382;8.480;2023-02-28T09:52:59;1.57;;;1.47;;
19006;SDS011;9636;47.382;8.480;2023-02-28T09:55:29;1.70;;;1.60;;
19006;SDS011;9636;47.382;8.480;2023-02-28T09:57:58;1.60;;;1.50;;
19006;SDS011;9636;47.382;8.480;2023-02-28T10:00:27;1.53;;;1.43;;
19006;SDS011;9636;47.382;8.480;2023-02-28T10:03:00;1.80;;;1.70;;
19006;SDS011;9636;47.382;8.480;2023-02-28T10:05:31;1.60;;;1.40;;
19006;SDS011;9636;47.382;8.480;2023-02-28T10:08:02;1.67;;;1.57;;
19006;SDS011;9636;47.382;8.480;2023-02-28T10:10:34;1.60;;;1.50;;
19006;SDS011;9636;47.382;8.480;2023-02-28T10:13:04;1.70;;;1.60;;
19006;SDS011;9636;47.382;8.480;2023-02-28T10:15:32;1.90;;;1.70;;
19006;SDS011;9636;47.382;8.480;2023-02-28T10:18:01;1.70;;;1.50;;
19006;SDS011;9636;47.382;8.480;2023-02-28T10:20:30;1.63;;;1.30;;
19006;SDS011;9636;47.382;8.480;2023-02-28T10:23:03;1.83;;;1.73;;
19006;SDS011;9636;47.382;8.480;2023-02-28T10:25:33;1.50;;;1.40;;
19006;SDS011;9636;47.382;8.480;2023-02-28T10:28:01;1.63;;;1.53;;
19006;SDS011;9636;47.382;8.480;2023-02-28T10:30:32;1.50;;;1.40;;
19006;SDS011;9636;47.382;8.480;2023-02-28T10:32:59;1.60;;;1.50;;
19006;SDS011;9636;47.382;8.480;2023-02-28T10:35:26;1.60;;;1.50;;
19006;SDS011;9636;47.382;8.480;2023-02-28T10:37:54;1.60;;;1.50;;
19006;SDS011;9636;47.382;8.480;2023-02-28T10:40:27;1.97;;;1.50;;
19006;SDS011;9636;47.382;8.480;2023-02-28T10:42:55;1.93;;;1.73;;
19006;SDS011;9636;47.382;8.480;2023-02-28T10:45:23;1.87;;;1.50;;
19006;SDS011;9636;47.382;8.480;2023-02-28T10:47:51;1.70;;;1.60;;
19006;SDS011;9636;47.382;8.480;2023-02-28T10:53:14;1.70;;;1.60;;
19006;SDS011;9636;47.382;8.480;2023-02-28T10:55:44;1.73;;;1.63;;
19006;SDS011;9636;47.382;8.480;2023-02-28T10:58:20;1.53;;;1.43;;
19006;SDS011;9636;47.382;8.480;2023-02-28T11:00:48;1.93;;;1.60;;
19006;SDS011;9636;47.382;8.480;2023-02-28T11:03:28;1.60;;;1.50;;
19006;SDS011;9636;47.382;8.480;2023-02-28T11:05:55;1.60;;;1.50;;
19006;SDS011;9636;47.382;8.480;2023-02-28T11:08:23;1.67;;;1.57;;
19006;SDS011;9636;47.382;8.480;2023-02-28T11:10:54;1.67;;;1.40;;
19006;SDS011;9636;47.382;8.480;2023-02-28T11:13:24;1.57;;;1.47;;
19006;SDS011;9636;47.382;8.480;2023-02-28T11:15:53;1.60;;;1.50;;
19006;SDS011;9636;47.382;8.480;2023-02-28T11:18:22;1.50;;;1.40;;
19006;SDS011;9636;47.382;8.480;2023-02-28T11:20:50;1.67;;;1.57;;
19006;SDS011;9636;47.382;8.480;2023-02-28T11:23:18;1.60;;;1.50;;
19006;SDS011;9636;47.382;8.480;2023-02-28T11:25:47;2.00;;;1.80;;
19006;SDS011;9636;47.382;8.480;2023-02-28T11:28:24;1.80;;;1.70;;
19006;SDS011;9636;47.382;8.480;2023-02-28T11:31:02;1.57;;;1.47;;
19006;SDS011;9636;47.382;8.480;2023-02-28T11:33:30;1.70;;;1.60;;
19006;SDS011;9636;47.382;8.480;2023-02-28T11:35:59;1.70;;;1.60;;
19006;SDS011;9636;47.382;8.480;2023-02-28T11:38:27;1.53;;;1.43;;
19006;SDS011;9636;47.382;8.480;2023-02-28T11:43:41;1.50;;;1.40;;
19006;SDS011;9636;47.382;8.480;2023-02-28T11:46:18;2.00;;;1.60;;
19006;SDS011;9636;47.382;8.480;2023-02-28T11:48:52;1.50;;;1.40;;
19006;SDS011;9636;47.382;8.480;2023-02-28T11:51:21;1.70;;;1.60;;
19006;SDS011;9636;47.382;8.480;2023-02-28T11:53:51;1.60;;;1.50;;
19006;SDS011;9636;47.382;8.480;2023-02-28T11:56:22;1.70;;;1.60;;
19006;SDS011;9636;47.382;8.480;2023-02-28T11:58:54;1.53;;;1.43;;
19006;SDS011;9636;47.382;8.480;2023-02-28T12:01:27;1.73;;;1.63;;
19006;SDS011;9636;47.382;8.480;2023-02-28T12:04:01;1.70;;;1.60;;
19006;SDS011;9636;47.382;8.480;2023-02-28T12:06:31;1.87;;;1.77;;
19006;SDS011;9636;47.382;8.480;2023-02-28T12:09:02;1.83;;;1.73;;
19006;SDS011;9636;47.382;8.480;2023-02-28T12:11:38;1.70;;;1.60;;
19006;SDS011;9636;47.382;8.480;2023-02-28T12:14:18;1.70;;;1.60;;
19006;SDS011;9636;47.382;8.480;2023-02-28T12:16:49;1.77;;;1.67;;
19006;SDS011;9636;47.382;8.480;2023-02-28T12:19:20;1.70;;;1.60;;
19006;SDS011;9636;47.382;8.480;2023-02-28T12:21:55;1.63;;;1.53;;
19006;SDS011;9636;47.382;8.480;2023-02-28T12:24:32;1.73;;;1.63;;
19006;SDS011;9636;47.382;8.480;2023-02-28T12:27:11;1.80;;;1.70;;
19006;SDS011;9636;47.382;8.480;2023-02-28T12:29:43;1.80;;;1.70;;
19006;SDS011;9636;47.382;8.480;2023-02-28T12:32:12;1.60;;;1.50;;
19006;SDS011;9636;47.382;8.480;2023-02-28T12:34:43;1.50;;;1.40;;
19006;SDS011;9636;47.382;8.480;2023-02-28T12:37:13;2.00;;;1.80;;
19006;SDS011;9636;47.382;8.480;2023-02-28T12:39:42;1.67;;;1.57;;
19006;SDS011;9636;47.382;8.480;2023-02-28T12:42:11;1.90;;;1.80;;
19006;SDS011;9636;47.382;8.480;2023-02-28T12:44:42;1.70;;;1.60;;
19006;SDS011;9636;47.382;8.480;2023-02-28T12:47:12;1.97;;;1.77;;
19006;SDS011;9636;47.382;8.480;2023-02-28T12:49:41;1.80;;;1.70;;
19006;SDS011;9636;47.382;8.480;2023-02-28T12:52:10;1.97;;;1.87;;
19006;SDS011;9636;47.382;8.480;2023-02-28T12:54:40;1.70;;;1.60;;
19006;SDS011;9636;47.382;8.480;2023-02-28T12:57:11;1.63;;;1.53;;
19006;SDS011;9636;47.382;8.480;2023-02-28T12:59:40;1.70;;;1.60;;
19006;SDS011;9636;47.382;8.480;2023-02-28T13:05:21;2.10;;;1.90;;
19006;SDS011;9636;47.382;8.480;2023-02-28T13:10:38;1.70;;;1.60;;
19006;SDS011;9636;47.382;8.480;2023-02-28T13:13:06;1.90;;;1.80;;
19006;SDS011;9636;47.382;8.480;2023-02-28T13:15:40;1.67;;;1.57;;
19006;SDS011;9636;47.382;8.480;2023-02-28T13:18:18;1.60;;;1.50;;
19006;SDS011;9636;47.382;8.480;2023-02-28T13:20:55;2.10;;;1.87;;
19006;SDS011;9636;47.382;8.480;2023-02-28T13:23:39;1.97;;;1.70;;
19006;SDS011;9636;47.382;8.480;2023-02-28T13:26:07;2.20;;;1.80;;
19006;SDS011;9636;47.382;8.480;2023-02-28T13:31:29;1.63;;;1.53;;
19006;SDS011;9636;47.382;8.480;2023-02-28T13:34:11;1.70;;;1.60;;
19006;SDS011;9636;47.382;8.480;2023-02-28T13:36:40;2.00;;;1.80;;
19006;SDS011;9636;47.382;8.480;2023-02-28T13:41:50;2.03;;;1.83;;
19006;SDS011;9636;47.382;8.480;2023-02-28T13:44:18;1.73;;;1.63;;
19006;SDS011;9636;47.382;8.480;2023-02-28T13:49:33;1.70;;;1.60;;
19006;SDS011;9636;47.382;8.480;2023-02-28T13:52:06;1.83;;;1.70;;
19006;SDS011;9636;47.382;8.480;2023-02-28T13:54:40;1.73;;;1.63;;
19006;SDS011;9636;47.382;8.480;2023-02-28T13:57:12;1.90;;;1.80;;
19006;SDS011;9636;47.382;8.480;2023-02-28T13:59:44;1.80;;;1.70;;
19006;SDS011;9636;47.382;8.480;2023-02-28T14:05:00;1.93;;;1.80;;
19006;SDS011;9636;47.382;8.480;2023-02-28T14:07:29;1.70;;;1.60;;
19006;SDS011;9636;47.382;8.480;2023-02-28T14:09:59;1.73;;;1.63;;
19006;SDS011;9636;47.382;8.480;2023-02-28T14:15:26;1.90;;;1.80;;
19006;SDS011;9636;47.382;8.480;2023-02-28T14:17:53;2.47;;;1.90;;
19006;SDS011;9636;47.382;8.480;2023-02-28T14:20:21;1.87;;;1.77;;
19006;SDS011;9636;47.382;8.480;2023-02-28T14:22:52;2.17;;;1.97;;
19006;SDS011;9636;47.382;8.480;2023-02-28T14:25:22;1.90;;;1.80;;
19006;SDS011;9636;47.382;8.480;2023-02-28T14:27:56;1.90;;;1.80;;
19006;SDS011;9636;47.382;8.480;2023-02-28T14:30:43;1.90;;;1.80;;
19006;SDS011;9636;47.382;8.480;2023-02-28T14:33:19;2.10;;;1.90;;
19006;SDS011;9636;47.382;8.480;2023-02-28T14:35:55;1.73;;;1.63;;
19006;SDS011;9636;47.382;8.480;2023-02-28T14:38:28;2.13;;;1.90;;
19006;SDS011;9636;47.382;8.480;2023-02-28T14:40:57;1.87;;;1.73;;
19006;SDS011;9636;47.382;8.480;2023-02-28T14:43:25;2.47;;;2.00;;
19006;SDS011;9636;47.382;8.480;2023-02-28T14:45:54;1.90;;;1.80;;
19006;SDS011;9636;47.382;8.480;2023-02-28T14:48:22;2.00;;;1.90;;
19006;SDS011;9636;47.382;8.480;2023-02-28T14:50:51;1.97;;;1.87;;
19006;SDS011;9636;47.382;8.480;2023-02-28T14:53:18;1.90;;;1.80;;
19006;SDS011;9636;47.382;8.480;2023-02-28T14:55:48;2.10;;;2.00;;
19006;SDS011;9636;47.382;8.480;2023-02-28T14:58:21;1.87;;;1.77;;
19006;SDS011;9636;47.382;8.480;2023-02-28T15:00:49;2.07;;;1.97;;
19006;SDS011;9636;47.382;8.480;2023-02-28T15:03:18;2.13;;;1.70;;
19006;SDS011;9636;47.382;8.480;2023-02-28T15:05:51;1.97;;;1.87;;
19006;SDS011;9636;47.382;8.480;2023-02-28T15:08:18;2.30;;;2.10;;
19006;SDS011;9636;47.382;8.480;2023-02-28T15:10:49;2.20;;;2.00;;
19006;SDS011;9636;47.382;8.480;2023-02-28T15:13:19;2.13;;;1.93;;
19006;SDS011;9636;47.382;8.480;2023-02-28T15:15:47;2.10;;;1.90;;
19006;SDS011;9636;47.382;8.480;2023-02-28T15:18:20;2.53;;;2.33;;
19006;SDS011;9636;47.382;8.480;2023-02-28T15:20:49;2.10;;;2.00;;
19006;SDS011;9636;47.382;8.480;2023-02-28T15:23:17;2.27;;;2.10;;
19006;SDS011;9636;47.382;8.480;2023-02-28T15:25:45;2.20;;;2.03;;
19006;SDS011;9636;47.382;8.480;2023-02-28T15:28:14;2.23;;;2.03;;
19006;SDS011;9636;47.382;8.480;2023-02-28T15:30:51;2.20;;;2.00;;
19006;SDS011;9636;47.382;8.480;2023-02-28T15:33:19;2.63;;;2.10;;
19006;SDS011;9636;47.382;8.480;2023-02-28T15:35:47;2.40;;;2.17;;
19006;SDS011;9636;47.382;8.480;2023-02-28T15:38:16;2.33;;;2.13;;
19006;SDS011;9636;47.382;8.480;2023-02-28T15:40:43;2.60;;;2.40;;
19006;SDS011;9636;47.382;8.480;2023-02-28T15:43:22;2.37;;;2.17;;
19006;SDS011;9636;47.382;8.480;2023-02-28T15:45:51;3.07;;;2.60;;